createdAt,value
2018-05-01T00:01:40.434Z,42.05
2018-05-01T00:06:50.763Z,41.92
2018-05-01T00:09:24.341Z,41.70
2018-05-01T00:11:54.116Z,41.84
2018-05-01T00:17:14.612Z,42.12
2018-05-01T00:19:46.030Z,42.33
2018-05-01T00:24:51.312Z,42.55
2018-05-01T00:30:03.884Z,42.30
2018-05-01T00:32:31.562Z,42.42
2018-05-01T00:34:59.983Z,42.59
2018-05-01T00:37:28.882Z,42.75
2018-05-01T00:39:57.344Z,42.85
2018-05-01T00:42:25.580Z,43.12
2018-05-01T00:44:54.686Z,43.26
2018-05-01T00:47:22.214Z,43.29
2018-05-01T00:49:49.642Z,43.51
2018-05-01T00:52:30.022Z,43.62
2018-05-01T00:57:37.088Z,44.02
2018-05-01T01:08:31.522Z,44.73
2018-05-01T01:10:59.046Z,45.03
2018-05-01T01:13:27.432Z,45.05
2018-05-01T01:15:55.175Z,44.82
2018-05-01T01:18:23.276Z,44.92
2018-05-01T01:20:50.761Z,45.10
2018-05-01T01:23:18.219Z,44.82
2018-05-01T01:25:45.670Z,44.65
2018-05-01T01:28:13.114Z,44.38
2018-05-01T01:30:40.786Z,44.35
2018-05-01T01:33:08.458Z,44.53
2018-05-01T01:35:35.378Z,44.56
2018-05-01T01:38:02.405Z,44.53
2018-05-01T01:40:29.384Z,43.89
2018-05-01T01:42:56.590Z,43.18
2018-05-01T01:45:23.481Z,43.22
2018-05-01T01:47:50.396Z,43.18
2018-05-01T01:50:17.295Z,43.15
2018-05-01T01:52:46.108Z,43.36
2018-05-01T01:55:13.034Z,43.58
2018-05-01T01:57:39.931Z,43.83
2018-05-01T02:00:07.048Z,44.12
2018-05-01T02:02:34.187Z,44.30
2018-05-01T02:05:01.579Z,44.49
2018-05-01T02:07:29.121Z,44.40
2018-05-01T02:09:56.802Z,44.19
2018-05-01T02:12:23.692Z,44.13
2018-05-01T02:14:50.586Z,44.20
2018-05-01T02:17:17.510Z,44.10
2018-05-01T02:19:44.634Z,44.19
2018-05-01T02:22:11.534Z,44.07
2018-05-01T02:24:39.221Z,44.19
2018-05-01T02:27:06.193Z,44.24
2018-05-01T02:29:33.099Z,44.04
2018-05-01T02:32:00.061Z,44.13
2018-05-01T02:34:26.986Z,44.21
2018-05-01T02:36:53.943Z,44.30
2018-05-01T02:39:20.860Z,44.22
2018-05-01T02:41:47.776Z,44.35
2018-05-01T02:44:14.703Z,44.27
2018-05-01T02:46:41.619Z,44.41
2018-05-01T02:49:08.555Z,44.36
2018-05-01T02:51:35.497Z,44.52
2018-05-01T02:54:26.653Z,44.36
2018-05-01T02:56:53.762Z,44.50
2018-05-01T02:59:20.671Z,44.50
2018-05-01T03:01:47.638Z,44.66
2018-05-01T03:04:14.542Z,44.59
2018-05-01T03:06:41.446Z,44.73
2018-05-01T03:09:08.346Z,44.83
2018-05-01T03:11:35.258Z,44.93
2018-05-01T03:14:02.214Z,44.88
2018-05-01T03:16:29.218Z,44.71
2018-05-01T03:18:56.122Z,44.88
2018-05-01T03:21:23.046Z,44.94
2018-05-01T03:23:49.972Z,44.82
2018-05-01T03:26:17.006Z,44.87
2018-05-01T03:28:43.978Z,45.08
2018-05-01T03:31:10.881Z,45.29
2018-05-01T03:33:38.069Z,45.00
2018-05-01T03:36:05.082Z,45.00
2018-05-01T03:38:33.062Z,45.09
2018-05-01T03:41:00.147Z,45.47
2018-05-01T03:43:32.163Z,45.40
2018-05-01T03:45:59.189Z,45.19
2018-05-01T03:48:26.125Z,45.37
2018-05-01T03:50:53.149Z,45.13
2018-05-01T03:53:20.106Z,44.82
2018-05-01T03:55:47.123Z,44.48
2018-05-01T03:58:14.016Z,44.75
2018-05-01T04:00:41.850Z,44.89
2018-05-01T04:03:23.875Z,44.86
2018-05-01T04:05:50.836Z,45.00
2018-05-01T04:08:17.814Z,45.02
2018-05-01T04:10:44.813Z,44.90
2018-05-01T04:13:13.771Z,45.06
2018-05-01T04:15:41.027Z,45.17
2018-05-01T04:18:07.999Z,45.10
2018-05-01T04:20:37.480Z,45.07
2018-05-01T04:23:04.660Z,45.19
2018-05-01T04:25:31.563Z,45.47
2018-05-01T04:27:58.550Z,45.55
2018-05-01T04:30:25.451Z,45.48
2018-05-01T04:32:52.487Z,45.58
2018-05-01T04:35:19.753Z,45.70
2018-05-01T04:37:46.685Z,45.88
2018-05-01T04:40:13.603Z,46.00
2018-05-01T04:42:40.499Z,46.12
2018-05-01T04:45:08.536Z,46.48
2018-05-01T04:47:35.652Z,46.83
2018-05-01T04:50:02.567Z,47.00
2018-05-01T04:52:39.343Z,47.12
2018-05-01T04:55:06.773Z,47.44
2018-05-01T04:57:33.679Z,47.51
2018-05-01T05:00:00.724Z,47.68
2018-05-01T05:02:27.636Z,47.78
2018-05-01T05:04:54.654Z,47.84
2018-05-01T05:07:21.598Z,47.62
2018-05-01T05:09:52.369Z,47.35
2018-05-01T05:12:19.341Z,47.52
2018-05-01T05:14:46.343Z,47.49
2018-05-01T05:17:13.297Z,47.40
2018-05-01T05:19:40.217Z,47.12
2018-05-01T05:22:09.877Z,47.32
2018-05-01T05:27:29.997Z,47.25
2018-05-01T05:29:58.725Z,47.24
2018-05-01T05:32:26.117Z,47.29
2018-05-01T05:34:53.902Z,47.01
2018-05-01T05:37:20.857Z,46.49
2018-05-01T05:39:48.533Z,46.77
2018-05-01T05:42:16.268Z,47.20
2018-05-01T05:44:43.213Z,47.24
2018-05-01T05:47:10.217Z,47.33
2018-05-01T05:49:37.207Z,47.35
2018-05-01T05:52:04.206Z,47.21
2018-05-01T05:54:31.235Z,46.94
2018-05-01T05:56:58.136Z,47.00
2018-05-01T05:59:25.110Z,46.93
2018-05-01T06:01:52.095Z,47.10
2018-05-01T06:04:19.015Z,47.71
2018-05-01T06:06:46.291Z,47.64
2018-05-01T06:09:14.007Z,46.88
2018-05-01T06:11:40.994Z,46.78
2018-05-01T06:14:07.897Z,46.39
2018-05-01T06:16:34.903Z,46.05
2018-05-01T06:19:01.876Z,46.54
2018-05-01T06:21:29.001Z,46.79
2018-05-01T06:23:55.993Z,46.90
2018-05-01T06:26:23.868Z,46.64
2018-05-01T06:28:50.865Z,46.68
2018-05-01T06:31:17.843Z,46.53
2018-05-01T06:33:44.738Z,46.66
2018-05-01T06:36:11.641Z,46.62
2018-05-01T06:38:39.419Z,47.10
2018-05-01T06:41:06.433Z,46.90
2018-05-01T06:43:34.126Z,46.82
2018-05-01T06:51:06.926Z,46.13
2018-05-01T06:53:48.668Z,45.93
2018-05-01T06:56:16.590Z,46.16
2018-05-01T06:58:44.131Z,46.13
2018-05-01T07:01:11.902Z,46.51
2018-05-01T07:03:38.846Z,46.17
2018-05-01T07:06:06.127Z,46.34
2018-05-01T07:08:33.451Z,46.31
2018-05-01T07:11:05.992Z,45.42
2018-05-01T07:13:53.644Z,45.85
2018-05-01T07:16:21.076Z,45.86
2018-05-01T07:19:00.144Z,46.51
2018-05-01T07:21:27.876Z,46.01
2018-05-01T07:23:55.206Z,46.27
2018-05-01T07:26:22.367Z,46.67
2018-05-01T07:28:50.574Z,46.79
2018-05-01T07:31:18.661Z,46.42
2018-05-01T07:33:46.391Z,46.67
2018-05-01T07:36:14.242Z,46.26
2018-05-01T07:38:41.440Z,46.20
2018-05-01T07:41:08.395Z,46.11
2018-05-01T07:43:35.437Z,46.40
2018-05-01T07:46:04.547Z,46.24
2018-05-01T07:48:32.730Z,46.47
2018-05-01T07:51:02.661Z,45.50
2018-05-01T07:53:30.965Z,45.70
2018-05-01T07:55:59.003Z,45.08
2018-05-01T07:58:26.838Z,45.11
2018-05-01T08:00:53.891Z,45.04
2018-05-01T08:03:20.885Z,45.29
2018-05-01T08:05:47.965Z,45.38
2018-05-01T08:08:14.998Z,44.58
2018-05-01T08:10:41.999Z,44.46
2018-05-01T08:13:09.579Z,44.13
2018-05-01T08:15:36.571Z,44.10
2018-05-01T08:18:03.536Z,44.36
2018-05-01T08:20:30.473Z,44.00
2018-05-01T08:22:57.417Z,45.24
2018-05-01T08:25:24.320Z,44.02
2018-05-01T08:27:51.302Z,44.06
2018-05-01T08:30:18.292Z,44.13
2018-05-01T08:32:45.236Z,40.60
2018-05-01T08:35:12.163Z,40.96
2018-05-01T08:37:39.161Z,41.13
2018-05-01T08:40:06.160Z,41.12
2018-05-01T08:42:33.088Z,40.80
2018-05-01T08:45:00.064Z,41.45
2018-05-01T08:47:27.013Z,41.24
2018-05-01T08:49:54.387Z,41.17
2018-05-01T08:52:21.332Z,40.54
2018-05-01T08:54:48.234Z,40.57
2018-05-01T08:57:15.194Z,40.37
2018-05-01T08:59:42.149Z,40.28
2018-05-01T09:02:09.128Z,40.52
2018-05-01T09:04:36.083Z,40.16
2018-05-01T09:07:03.483Z,40.14
2018-05-01T09:09:30.599Z,40.24
2018-05-01T09:11:57.487Z,39.47
2018-05-01T09:14:24.417Z,39.50
2018-05-01T09:16:51.355Z,38.81
2018-05-01T09:19:18.299Z,39.30
2018-05-01T09:21:45.420Z,38.89
2018-05-01T09:24:12.441Z,37.88
2018-05-01T09:26:39.440Z,38.46
2018-05-01T09:29:06.349Z,39.16
2018-05-01T09:31:33.987Z,38.77
2018-05-01T09:34:00.947Z,38.37
2018-05-01T09:36:27.900Z,38.84
2018-05-01T09:38:54.801Z,38.08
2018-05-01T09:41:21.793Z,38.49
2018-05-01T09:43:48.727Z,38.61
2018-05-01T09:46:15.758Z,37.73
2018-05-01T09:48:42.667Z,37.60
2018-05-01T09:51:09.659Z,37.80
2018-05-01T09:53:37.141Z,37.39
2018-05-01T09:56:04.987Z,37.22
2018-05-01T09:58:32.513Z,37.64
2018-05-01T10:00:59.985Z,37.62
2018-05-01T10:03:27.511Z,37.13
2018-05-01T10:05:54.965Z,35.20
2018-05-01T10:08:22.447Z,35.45
2018-05-01T10:10:49.951Z,35.56
2018-05-01T10:13:18.262Z,34.86
2018-05-01T10:15:46.131Z,34.36
2018-05-01T10:18:13.592Z,34.64
2018-05-01T10:20:41.056Z,33.24
2018-05-01T10:23:09.312Z,33.27
2018-05-01T10:25:37.726Z,32.99
2018-05-01T10:28:06.438Z,32.58
2018-05-01T10:30:34.007Z,32.63
2018-05-01T10:33:01.472Z,32.90
2018-05-01T10:35:28.995Z,33.54
2018-05-01T10:37:56.525Z,33.85
2018-05-01T10:40:23.996Z,33.70
2018-05-01T10:42:51.828Z,33.72
2018-05-01T10:45:19.305Z,33.50
2018-05-01T10:47:47.057Z,33.04
2018-05-01T10:50:14.513Z,32.77
2018-05-01T10:52:42.005Z,32.46
2018-05-01T10:55:09.454Z,32.13
2018-05-01T10:57:36.915Z,32.23
2018-05-01T11:00:04.365Z,32.22
2018-05-01T11:02:31.815Z,32.14
2018-05-01T11:05:00.088Z,31.92
2018-05-01T11:07:27.550Z,31.47
2018-05-01T11:09:55.153Z,31.38
2018-05-01T11:12:23.565Z,31.41
2018-05-01T11:14:51.043Z,31.84
2018-05-01T11:17:19.408Z,30.93
2018-05-01T11:19:46.902Z,30.11
2018-05-01T11:22:14.356Z,30.01
2018-05-01T11:24:42.063Z,29.68
2018-05-01T11:27:09.571Z,29.76
2018-05-01T11:29:37.010Z,29.80
2018-05-01T11:32:04.461Z,31.01
2018-05-01T11:34:31.891Z,31.65
2018-05-01T11:36:59.328Z,31.96
2018-05-01T11:39:26.802Z,32.00
2018-05-01T11:41:54.337Z,31.31
2018-05-01T11:44:21.767Z,30.64
2018-05-01T11:46:49.261Z,30.38
2018-05-01T11:49:16.761Z,30.23
2018-05-01T11:51:44.425Z,29.91
2018-05-01T11:54:11.965Z,29.09
2018-05-01T11:56:39.549Z,29.20
2018-05-01T11:59:07.001Z,28.81
2018-05-01T12:01:34.474Z,29.66
2018-05-01T12:04:01.948Z,29.31
2018-05-01T12:06:29.985Z,28.84
2018-05-01T12:08:57.472Z,30.20
2018-05-01T12:11:25.104Z,31.20
2018-05-01T12:13:52.974Z,32.51
2018-05-01T12:16:20.539Z,32.99
2018-05-01T12:18:48.032Z,33.37
2018-05-01T12:21:15.506Z,33.88
2018-05-01T12:23:42.976Z,33.78
2018-05-01T12:26:10.561Z,33.08
2018-05-01T12:28:38.059Z,31.76
2018-05-01T12:31:05.728Z,31.30
2018-05-01T12:33:33.165Z,30.87
2018-05-01T12:36:04.125Z,31.10
2018-05-01T12:38:32.571Z,31.39
2018-05-01T12:41:00.067Z,30.26
2018-05-01T12:43:27.521Z,29.46
2018-05-01T12:45:55.003Z,29.24
2018-05-01T12:48:22.607Z,28.98
2018-05-01T12:50:50.058Z,28.26
2018-05-01T12:53:17.513Z,27.56
2018-05-01T12:55:45.097Z,27.40
2018-05-01T12:58:12.574Z,27.52
2018-05-01T13:00:40.088Z,27.61
2018-05-01T13:03:07.549Z,27.89
2018-05-01T13:05:35.272Z,28.41
2018-05-01T13:08:02.800Z,28.42
2018-05-01T13:10:30.273Z,29.24
2018-05-01T13:13:02.721Z,28.57
2018-05-01T13:15:30.159Z,28.74
2018-05-01T13:17:57.634Z,28.91
2018-05-01T13:20:25.341Z,29.46
2018-05-01T13:22:57.806Z,29.54
2018-05-01T13:25:25.290Z,29.91
2018-05-01T13:27:52.925Z,29.80
2018-05-01T13:30:20.375Z,30.30
2018-05-01T13:33:11.832Z,30.15
2018-05-01T13:35:39.309Z,30.10
2018-05-01T13:38:07.491Z,30.45
2018-05-01T13:40:35.076Z,30.18
2018-05-01T13:43:02.525Z,30.44
2018-05-01T13:45:30.066Z,30.16
2018-05-01T13:47:57.512Z,30.87
2018-05-01T13:50:25.106Z,31.11
2018-05-01T13:52:52.598Z,31.25
2018-05-01T13:55:20.181Z,30.85
2018-05-01T13:57:47.559Z,30.87
2018-05-01T14:00:15.005Z,30.25
2018-05-01T14:02:52.248Z,30.23
2018-05-01T14:05:19.710Z,29.33
2018-05-01T14:07:47.407Z,29.17
2018-05-01T14:10:14.915Z,29.96
2018-05-01T14:12:42.498Z,29.74
2018-05-01T14:15:09.959Z,30.57
2018-05-01T14:17:37.676Z,30.09
2018-05-01T14:20:05.109Z,30.32
2018-05-01T14:22:32.585Z,30.54
2018-05-01T14:25:00.187Z,30.22
2018-05-01T14:27:28.394Z,30.83
2018-05-01T14:29:55.861Z,30.98
2018-05-01T14:32:23.335Z,31.44
2018-05-01T14:34:50.876Z,31.23
2018-05-01T14:37:18.370Z,31.03
2018-05-01T14:39:45.949Z,30.87
2018-05-01T14:42:13.399Z,30.77
2018-05-01T14:44:40.957Z,30.80
2018-05-01T14:47:08.462Z,30.83
2018-05-01T14:49:35.995Z,30.58
2018-05-01T14:52:03.488Z,31.25
2018-05-01T14:54:30.965Z,31.13
2018-05-01T14:56:58.509Z,30.87
2018-05-01T14:59:26.072Z,30.90
2018-05-01T15:01:53.569Z,30.95
2018-05-01T15:04:26.022Z,31.64
2018-05-01T15:06:53.577Z,31.12
2018-05-01T15:09:21.674Z,30.89
2018-05-01T15:11:49.203Z,31.32
2018-05-01T15:14:18.204Z,31.74
2018-05-01T15:16:45.844Z,32.25
2018-05-01T15:19:13.438Z,32.38
2018-05-01T15:21:40.974Z,32.10
2018-05-01T15:24:08.727Z,33.11
2018-05-01T15:26:38.697Z,32.69
2018-05-01T15:29:06.921Z,32.74
2018-05-01T15:31:36.057Z,32.13
2018-05-01T15:34:03.655Z,31.30
2018-05-01T15:36:32.461Z,31.36
2018-05-01T15:39:01.695Z,31.76
2018-05-01T15:44:03.493Z,31.19
2018-05-01T15:46:30.995Z,31.60
2018-05-01T15:48:58.427Z,31.50
2018-05-01T15:51:26.057Z,31.75
2018-05-01T15:53:54.500Z,31.82
2018-05-01T15:56:22.191Z,32.20
2018-05-01T15:58:49.807Z,32.43
2018-05-01T16:01:18.062Z,32.72
2018-05-01T16:03:45.488Z,32.78
2018-05-01T16:06:12.967Z,32.28
2018-05-01T16:08:41.039Z,32.54
2018-05-01T16:11:09.891Z,32.69
2018-05-01T16:13:38.071Z,32.76
2018-05-01T16:16:05.708Z,32.43
2018-05-01T16:18:33.170Z,32.45
2018-05-01T16:21:00.659Z,32.85
2018-05-01T16:23:33.133Z,32.88
2018-05-01T16:26:00.567Z,32.56
2018-05-01T16:28:28.012Z,32.62
2018-05-01T16:30:55.478Z,32.92
2018-05-01T16:33:22.957Z,33.19
2018-05-01T16:35:50.426Z,33.08
2018-05-01T16:38:17.887Z,33.04
2018-05-01T16:40:45.341Z,33.12
2018-05-01T16:43:12.784Z,32.83
2018-05-01T16:45:40.267Z,32.59
2018-05-01T16:48:07.749Z,32.82
2018-05-01T16:50:35.199Z,32.85
2018-05-01T16:53:02.699Z,32.66
2018-05-01T16:55:31.222Z,32.91
2018-05-01T16:57:58.696Z,32.94
2018-05-01T17:00:26.237Z,33.21
2018-05-01T17:02:53.757Z,32.85
2018-05-01T17:05:21.231Z,32.70
2018-05-01T17:07:48.715Z,32.81
2018-05-01T17:10:16.655Z,32.92
2018-05-01T17:12:44.208Z,33.06
2018-05-01T17:15:11.656Z,33.13
2018-05-01T17:17:39.166Z,33.01
2018-05-01T17:20:06.635Z,33.38
2018-05-01T17:22:34.863Z,33.26
2018-05-01T17:25:02.320Z,33.43
2018-05-01T17:27:30.500Z,33.18
2018-05-01T17:29:57.973Z,33.40
2018-05-01T17:32:25.521Z,33.52
2018-05-01T17:34:53.067Z,33.84
2018-05-01T17:37:20.629Z,34.19
2018-05-01T17:39:48.107Z,34.38
2018-05-01T17:42:15.595Z,34.50
2018-05-01T17:44:43.097Z,34.72
2018-05-01T17:47:10.639Z,34.76
2018-05-01T17:49:38.139Z,34.80
2018-05-01T17:52:05.585Z,34.84
2018-05-01T17:54:33.260Z,34.50
2018-05-01T17:57:00.778Z,34.75
2018-05-01T17:59:28.258Z,34.77
2018-05-01T18:02:00.421Z,34.46
2018-05-01T18:04:37.699Z,34.52
2018-05-01T18:07:19.159Z,34.63
2018-05-01T18:09:57.572Z,34.77
2018-05-01T18:12:29.732Z,34.56
2018-05-01T18:15:23.981Z,34.71
2018-05-01T18:17:53.474Z,34.75
2018-05-01T18:20:21.050Z,35.00
2018-05-01T18:22:48.573Z,35.26
2018-05-01T18:25:16.047Z,35.14
2018-05-01T18:27:43.527Z,34.98
2018-05-01T18:30:11.089Z,34.94
2018-05-01T18:32:38.812Z,34.79
2018-05-01T18:35:06.266Z,35.30
2018-05-01T18:37:33.733Z,35.40
2018-05-01T18:40:01.259Z,35.52
2018-05-01T18:42:29.002Z,35.51
2018-05-01T18:44:56.871Z,36.20
2018-05-01T18:47:24.400Z,35.56
2018-05-01T18:49:51.898Z,36.17
2018-05-01T18:52:19.480Z,36.25
2018-05-01T18:54:46.942Z,36.14
2018-05-01T18:57:14.414Z,36.00
2018-05-01T18:59:41.922Z,36.05
2018-05-01T19:02:09.432Z,36.19
2018-05-01T19:04:37.015Z,36.22
2018-05-01T19:07:05.106Z,36.41
2018-05-01T19:09:32.634Z,36.93
2018-05-01T19:12:00.224Z,37.63
2018-05-01T19:14:27.856Z,38.07
2018-05-01T19:16:55.333Z,38.02
2018-05-01T19:19:22.865Z,38.31
2018-05-01T19:21:50.389Z,37.85
2018-05-01T19:24:18.004Z,37.57
2018-05-01T19:26:45.485Z,37.93
2018-05-01T19:29:12.990Z,38.01
2018-05-01T19:31:40.472Z,38.02
2018-05-01T19:34:08.180Z,38.35
2018-05-01T19:36:35.943Z,38.71
2018-05-01T19:39:03.527Z,38.70
2018-05-01T19:41:32.164Z,38.78
2018-05-01T19:44:04.947Z,38.95
2018-05-01T19:46:32.646Z,39.39
2018-05-01T19:49:00.891Z,39.45
2018-05-01T19:51:28.934Z,40.52
2018-05-01T19:54:02.960Z,40.10
2018-05-01T19:56:31.378Z,40.11
2018-05-01T19:58:58.983Z,40.22
2018-05-01T20:01:27.400Z,40.32
2018-05-01T20:03:54.974Z,40.45
2018-05-01T20:06:22.845Z,40.29
2018-05-01T20:08:50.373Z,41.03
2018-05-01T20:11:22.291Z,40.30
2018-05-01T20:13:51.364Z,39.72
2018-05-01T20:16:19.937Z,39.74
2018-05-01T20:18:47.430Z,40.53
2018-05-01T20:21:15.080Z,40.78
2018-05-01T20:23:42.602Z,41.27
2018-05-01T20:26:10.205Z,41.06
2018-05-01T20:28:38.474Z,41.17
2018-05-01T20:31:06.244Z,41.61
2018-05-01T20:33:38.758Z,41.39
2018-05-01T20:36:06.590Z,41.85
2018-05-01T20:38:35.691Z,41.72
2018-05-01T20:41:03.192Z,41.76
2018-05-01T20:43:32.276Z,41.66
2018-05-01T20:45:59.848Z,41.63
2018-05-01T20:48:27.370Z,41.57
2018-05-01T20:50:54.940Z,41.54
2018-05-01T20:53:22.419Z,41.18
2018-05-01T20:55:50.159Z,41.07
2018-05-01T20:58:17.768Z,41.21
2018-05-01T21:00:45.357Z,41.50
2018-05-01T21:03:12.868Z,41.32
2018-05-01T21:05:43.034Z,40.85
2018-05-01T21:08:10.515Z,41.02
2018-05-01T21:10:38.150Z,41.37
2018-05-01T21:13:05.725Z,41.48
2018-05-01T21:15:33.210Z,41.64
2018-05-01T21:18:00.789Z,41.96
2018-05-01T21:20:28.297Z,42.60
2018-05-01T21:23:00.795Z,41.92
2018-05-01T21:25:28.336Z,42.08
2018-05-01T21:27:55.830Z,42.37
2018-05-01T21:30:23.612Z,42.53
2018-05-01T21:32:51.115Z,42.62
2018-05-01T21:35:18.650Z,42.36
2018-05-01T21:37:46.568Z,42.75
2018-05-01T21:40:14.049Z,43.23
2018-05-01T21:42:41.727Z,43.27
2018-05-01T21:45:09.243Z,43.37
2018-05-01T21:47:36.702Z,43.17
2018-05-01T21:50:04.168Z,43.18
2018-05-01T21:52:31.694Z,42.96
2018-05-01T21:54:59.155Z,43.15
2018-05-01T21:57:26.629Z,43.60
2018-05-01T21:59:54.387Z,43.80
2018-05-01T22:02:21.846Z,43.61
2018-05-01T22:04:49.328Z,44.20
2018-05-01T22:07:18.081Z,44.20
2018-05-01T22:09:46.734Z,44.03
2018-05-01T22:12:14.269Z,44.25
2018-05-01T22:14:41.745Z,44.36
2018-05-01T22:17:09.305Z,44.67
2018-05-01T22:19:36.788Z,45.02
2018-05-01T22:22:04.312Z,45.31
2018-05-01T22:24:31.936Z,45.74
2018-05-01T22:27:01.977Z,46.14
2018-05-01T22:29:29.599Z,46.63
2018-05-01T22:31:57.183Z,46.58
2018-05-01T22:34:24.685Z,46.23
2018-05-01T22:36:52.219Z,46.75
2018-05-01T22:39:22.249Z,47.10
2018-05-01T22:41:50.075Z,46.98
2018-05-01T22:44:17.551Z,47.48
2018-05-01T22:46:45.069Z,48.05
2018-05-01T22:49:12.649Z,47.95
2018-05-01T22:51:40.269Z,48.39
2018-05-01T22:54:07.727Z,49.15
2018-05-01T22:56:35.161Z,49.25
2018-05-01T22:59:02.713Z,48.14
2018-05-01T23:01:30.369Z,48.49
2018-05-01T23:10:02.437Z,48.69
2018-05-01T23:12:30.241Z,49.40
2018-05-01T23:15:11.980Z,49.00
2018-05-01T23:17:39.679Z,48.67
2018-05-01T23:20:07.176Z,49.34
2018-05-01T23:22:35.146Z,49.12
2018-05-01T23:25:03.483Z,49.78
2018-05-01T23:27:31.659Z,49.51
2018-05-01T23:29:59.945Z,49.31
2018-05-01T23:32:30.731Z,49.49
2018-05-01T23:37:50.528Z,49.85
2018-05-01T23:40:20.054Z,50.07
2018-05-01T23:42:49.891Z,49.76
2018-05-01T23:45:17.385Z,49.93
2018-05-01T23:47:44.845Z,50.07
2018-05-01T23:50:13.745Z,50.53
2018-05-01T23:52:41.201Z,50.64
2018-05-01T23:55:08.651Z,50.64
2018-05-01T23:57:36.097Z,50.88
